Time;durP1;ratioP1;P1;durP2;ratioP2;P2;SDS_P1;SDS_P2;PMS_P1;PMS_P2;Temp;Humidity;BMP_temperature;BMP_pressure;BME280_temperature;BME280_humidity;BME280_pressure;Samples;Min_cycle;Max_cycle;Signal;HPM_P1;HPM_P2
2022/05/18 00:00:09;;;;;;;12.52;6.22;;;18.00;99.90;;;;;;5060250;28;20041;-67
2022/05/18 00:02:35;;;;;;;9.10;6.40;;;17.90;99.90;;;;;;5053158;28;20037;-66
2022/05/18 00:05:00;;;;;;;13.35;7.13;;;17.90;99.90;;;;;;5066304;28;20041;-66
2022/05/18 00:07:26;;;;;;;13.52;7.47;;;17.90;99.90;;;;;;5058759;28;20521;-66
2022/05/18 00:09:51;;;;;;;10.38;6.65;;;17.80;99.90;;;;;;5069015;28;20400;-66
2022/05/18 00:12:17;;;;;;;11.85;7.55;;;17.90;99.90;;;;;;5068188;28;20124;-66
2022/05/18 00:14:44;;;;;;;12.40;6.65;;;17.80;99.90;;;;;;5053307;28;20044;-66
2022/05/18 00:17:10;;;;;;;9.65;6.90;;;17.80;99.90;;;;;;5068276;28;20668;-66
2022/05/18 00:19:35;;;;;;;10.32;6.55;;;17.80;99.90;;;;;;5057748;28;20037;-66
2022/05/18 00:22:01;;;;;;;10.05;7.30;;;17.70;99.90;;;;;;5052726;28;20049;-66
2022/05/18 00:24:27;;;;;;;13.13;6.80;;;17.70;99.90;;;;;;5058344;28;20025;-66
2022/05/18 00:26:52;;;;;;;12.88;6.95;;;17.70;99.90;;;;;;5062074;28;20037;-63
2022/05/18 00:29:18;;;;;;;10.75;6.88;;;17.60;99.90;;;;;;5058961;28;20467;-66
2022/05/18 00:31:46;;;;;;;12.00;6.95;;;17.60;99.90;;;;;;5072616;28;20033;-66
2022/05/18 00:34:13;;;;;;;11.65;6.88;;;17.60;99.90;;;;;;5064835;28;20057;-63
2022/05/18 00:36:39;;;;;;;9.52;6.57;;;17.60;99.90;;;;;;5063123;28;20032;-63
2022/05/18 00:39:05;;;;;;;12.95;6.70;;;17.50;99.90;;;;;;5066515;28;20132;-63
2022/05/18 00:41:31;;;;;;;11.50;7.32;;;17.50;99.90;;;;;;5066703;28;20033;-63
2022/05/18 00:43:57;;;;;;;11.00;7.35;;;17.50;99.90;;;;;;5055173;28;20040;-64
2022/05/18 00:46:23;;;;;;;15.85;7.28;;;17.50;99.90;;;;;;5059619;28;20470;-66
2022/05/18 00:48:51;;;;;;;13.00;7.28;;;17.50;99.90;;;;;;5071505;28;20060;-66
2022/05/18 00:51:25;;;;;;;11.40;7.00;;;17.50;99.90;;;;;;5071244;28;20037;-62
2022/05/18 00:54:14;;;;;;;10.52;6.93;;;17.40;99.90;;;;;;5072281;28;20435;-66
2022/05/18 00:56:53;;;;;;;10.45;7.25;;;17.40;99.90;;;;;;5070307;28;20048;-65
2022/05/18 00:59:24;;;;;;;12.18;7.30;;;17.40;99.90;;;;;;5067019;28;20045;-63
2022/05/18 01:01:52;;;;;;;10.77;7.07;;;17.30;99.90;;;;;;5052241;28;20037;-64
2022/05/18 01:04:18;;;;;;;10.27;7.32;;;17.30;99.90;;;;;;5058058;28;20028;-64
2022/05/18 01:06:45;;;;;;;11.10;6.68;;;17.30;99.90;;;;;;5069902;28;20407;-63
2022/05/18 01:09:25;;;;;;;11.00;7.38;;;17.30;99.90;;;;;;5071658;28;20264;-62
2022/05/18 01:11:51;;;;;;;14.20;7.13;;;17.20;99.90;;;;;;5069856;28;20040;-63
2022/05/18 01:14:33;;;;;;;12.18;7.07;;;17.20;99.90;;;;;;5053404;28;20055;-63
2022/05/18 01:16:59;;;;;;;10.52;6.95;;;17.20;99.90;;;;;;5061944;28;20403;-63
2022/05/18 01:19:36;;;;;;;9.65;6.70;;;17.10;99.90;;;;;;5068800;28;20032;-62
2022/05/18 01:22:17;;;;;;;11.38;7.28;;;17.20;99.90;;;;;;5047319;28;20040;-63
2022/05/18 01:25:02;;;;;;;12.15;7.25;;;17.10;99.90;;;;;;5061409;28;20033;-64
2022/05/18 01:27:28;;;;;;;11.07;6.60;;;17.10;99.90;;;;;;5055096;28;20436;-63
2022/05/18 01:29:55;;;;;;;10.68;6.72;;;17.00;99.90;;;;;;5038402;28;20040;-64
2022/05/18 01:32:21;;;;;;;10.45;6.68;;;17.10;99.90;;;;;;5049967;28;20514;-64
2022/05/18 01:34:47;;;;;;;12.85;6.57;;;17.00;99.90;;;;;;5061992;28;20041;-64
2022/05/18 01:37:15;;;;;;;9.82;6.18;;;17.00;99.90;;;;;;5071284;28;20032;-69
2022/05/18 01:39:53;;;;;;;10.52;6.55;;;17.00;99.90;;;;;;5069210;28;20055;-68
2022/05/18 01:42:59;;;;;;;13.00;6.63;;;17.00;99.90;;;;;;5054031;28;20036;-66
2022/05/18 01:45:25;;;;;;;11.98;7.38;;;16.90;99.90;;;;;;4989726;28;20373;-65
2022/05/18 01:47:50;;;;;;;10.68;6.65;;;16.90;99.90;;;;;;5063750;28;20051;-68
2022/05/18 01:50:25;;;;;;;11.40;6.97;;;16.90;99.90;;;;;;5070785;28;20047;-63
2022/05/18 01:52:51;;;;;;;10.75;7.55;;;16.80;99.90;;;;;;5064486;28;20051;-66
2022/05/18 01:55:17;;;;;;;11.20;6.50;;;16.80;99.90;;;;;;5057291;28;20040;-63
2022/05/18 01:57:43;;;;;;;12.32;6.50;;;16.80;99.90;;;;;;5057242;28;20032;-66
2022/05/18 02:00:11;;;;;;;14.13;6.65;;;16.80;99.90;;;;;;5051942;28;20041;-67
2022/05/18 02:02:37;;;;;;;12.63;6.72;;;16.70;99.90;;;;;;5064176;28;20036;-64
2022/05/18 02:05:03;;;;;;;10.15;6.57;;;16.70;99.90;;;;;;5056430;28;20033;-64
2022/05/18 02:07:29;;;;;;;10.23;6.63;;;16.70;99.90;;;;;;5050131;28;20372;-68
2022/05/18 02:09:55;;;;;;;10.70;6.55;;;16.70;99.90;;;;;;5061116;28;20040;-63
2022/05/18 02:12:20;;;;;;;11.32;6.68;;;16.70;99.90;;;;;;5049913;28;20049;-64
2022/05/18 02:14:46;;;;;;;9.98;6.95;;;16.60;99.90;;;;;;5056443;28;20478;-63
2022/05/18 02:17:11;;;;;;;12.07;7.32;;;16.60;99.90;;;;;;5070806;28;20119;-67
2022/05/18 02:19:37;;;;;;;10.15;6.80;;;16.60;99.90;;;;;;5070242;28;20036;-63
2022/05/18 02:22:03;;;;;;;11.98;7.05;;;16.50;99.90;;;;;;5069534;28;20107;-64
2022/05/18 02:24:30;;;;;;;12.38;7.38;;;16.50;99.90;;;;;;5059866;28;20068;-64
2022/05/18 02:26:55;;;;;;;13.43;7.30;;;16.50;99.90;;;;;;5070884;28;20112;-63
2022/05/18 02:29:21;;;;;;;10.60;7.20;;;16.50;99.90;;;;;;5070616;28;20115;-64
2022/05/18 02:31:46;;;;;;;11.80;7.28;;;16.50;99.90;;;;;;5069862;28;20040;-63
2022/05/18 02:34:12;;;;;;;12.48;6.80;;;16.40;99.90;;;;;;5070042;28;20394;-65
2022/05/18 02:36:37;;;;;;;10.95;7.00;;;16.40;99.90;;;;;;5067547;28;20511;-63
2022/05/18 02:39:03;;;;;;;12.05;7.53;;;16.40;99.90;;;;;;5056585;28;20080;-63
2022/05/18 02:41:29;;;;;;;11.73;7.78;;;16.40;99.90;;;;;;5051364;28;20037;-64
2022/05/18 02:43:54;;;;;;;12.13;7.50;;;16.40;99.90;;;;;;5069760;28;20478;-65
2022/05/18 02:46:22;;;;;;;12.50;6.78;;;16.30;99.90;;;;;;5069190;28;20041;-66
2022/05/18 02:48:50;;;;;;;14.68;8.25;;;16.30;99.90;;;;;;5065591;28;20490;-63
2022/05/18 02:51:17;;;;;;;13.32;7.78;;;16.30;99.90;;;;;;5059549;28;20120;-67
2022/05/18 02:53:43;;;;;;;11.27;7.15;;;16.30;99.90;;;;;;5060889;28;20049;-67
2022/05/18 02:56:13;;;;;;;10.85;7.28;;;16.30;99.90;;;;;;5053730;28;20048;-67
2022/05/18 02:58:50;;;;;;;12.10;7.35;;;16.20;99.90;;;;;;5050109;28;20049;-65
2022/05/18 03:01:24;;;;;;;10.48;7.50;;;16.20;99.90;;;;;;5064451;28;20047;-63
2022/05/18 03:03:51;;;;;;;9.93;7.13;;;16.20;99.90;;;;;;5054507;28;20036;-64
2022/05/18 03:06:19;;;;;;;11.68;7.65;;;16.10;99.90;;;;;;5039291;28;20037;-65
2022/05/18 03:08:46;;;;;;;11.18;7.60;;;16.20;99.90;;;;;;5051977;28;20033;-64
2022/05/18 03:11:13;;;;;;;9.73;7.47;;;16.10;99.90;;;;;;5057213;28;20087;-63
2022/05/18 03:13:39;;;;;;;13.60;7.75;;;16.10;99.90;;;;;;5050425;28;20319;-67
2022/05/18 03:16:05;;;;;;;11.25;7.75;;;16.10;99.90;;;;;;5060291;28;20504;-63
2022/05/18 03:18:31;;;;;;;10.77;8.38;;;16.10;99.90;;;;;;5069066;28;20082;-63
2022/05/18 03:23:41;;;;;;;11.02;8.05;;;16.10;99.90;;;;;;5057804;28;20032;-63
2022/05/18 03:26:13;;;;;;;12.07;8.15;;;16.00;99.90;;;;;;5073776;28;20040;-67
2022/05/18 03:28:40;;;;;;;11.20;7.80;;;16.00;99.90;;;;;;5054107;28;20040;-65
2022/05/18 03:31:07;;;;;;;13.02;8.80;;;16.00;99.90;;;;;;5062518;28;20090;-64
2022/05/18 03:33:34;;;;;;;11.32;8.32;;;16.00;99.90;;;;;;5058762;28;20048;-64
2022/05/18 03:35:59;;;;;;;13.68;8.65;;;15.90;99.90;;;;;;5060613;28;20411;-65
2022/05/18 03:38:25;;;;;;;14.32;8.73;;;15.90;99.90;;;;;;5058946;28;20040;-66
2022/05/18 03:40:51;;;;;;;12.73;8.32;;;15.90;99.90;;;;;;5055725;28;20378;-63
2022/05/18 03:43:18;;;;;;;11.82;8.77;;;15.90;99.90;;;;;;5056124;28;20039;-63
2022/05/18 03:45:44;;;;;;;14.82;9.07;;;15.90;99.90;;;;;;5058964;28;20478;-66
2022/05/18 03:48:11;;;;;;;10.50;8.55;;;15.90;99.90;;;;;;5065890;28;20078;-64
2022/05/18 03:50:39;;;;;;;13.45;8.88;;;15.80;99.90;;;;;;5059889;28;20064;-63
2022/05/18 03:53:05;;;;;;;15.80;9.20;;;15.80;99.90;;;;;;5054825;28;20099;-64
2022/05/18 03:55:31;;;;;;;12.65;8.65;;;15.80;99.90;;;;;;5053729;28;20124;-63
2022/05/18 03:57:56;;;;;;;11.18;8.32;;;15.80;99.90;;;;;;5058881;28;20537;-63
2022/05/18 04:00:23;;;;;;;10.85;8.90;;;15.80;99.90;;;;;;5064599;28;20064;-68
2022/05/18 04:02:49;;;;;;;14.13;9.45;;;15.80;99.90;;;;;;5059518;28;20052;-65
2022/05/18 04:05:22;;;;;;;15.52;9.68;;;15.80;99.90;;;;;;5059592;28;20029;-63
2022/05/18 04:07:49;;;;;;;14.30;9.55;;;15.70;99.90;;;;;;5061197;28;20052;-63
2022/05/18 04:10:16;;;;;;;14.35;9.43;;;15.70;99.90;;;;;;5052194;28;20087;-64
2022/05/18 04:12:43;;;;;;;12.77;9.65;;;15.80;99.90;;;;;;5063057;28;20048;-63
2022/05/18 04:15:10;;;;;;;12.40;9.30;;;15.80;99.90;;;;;;5073102;28;20417;-64
2022/05/18 04:17:36;;;;;;;13.05;9.65;;;15.70;99.90;;;;;;5070383;28;20500;-64
2022/05/18 04:20:06;;;;;;;14.80;10.30;;;15.80;99.90;;;;;;5072300;28;20116;-63
2022/05/18 04:22:32;;;;;;;14.88;10.52;;;15.80;99.90;;;;;;5066332;28;20119;-63
2022/05/18 04:25:01;;;;;;;13.77;10.25;;;15.80;99.90;;;;;;5053183;28;20037;-63
2022/05/18 04:27:28;;;;;;;14.85;9.85;;;15.80;99.90;;;;;;5061333;28;20034;-66
2022/05/18 04:29:54;;;;;;;15.35;10.15;;;15.70;99.90;;;;;;5059186;28;20059;-63
2022/05/18 04:32:21;;;;;;;11.80;9.65;;;15.70;99.90;;;;;;5059740;28;20077;-62
2022/05/18 04:34:48;;;;;;;14.80;10.00;;;15.80;99.90;;;;;;5054692;28;20048;-69
2022/05/18 04:37:18;;;;;;;15.30;9.88;;;15.80;99.90;;;;;;5052842;28;20044;-67
2022/05/18 04:39:44;;;;;;;12.85;10.20;;;15.80;99.90;;;;;;5056373;28;20040;-64
2022/05/18 04:42:10;;;;;;;17.23;11.15;;;15.80;99.90;;;;;;5059006;28;20036;-65
2022/05/18 04:44:36;;;;;;;15.90;10.73;;;15.80;99.90;;;;;;5055846;28;20033;-63
2022/05/18 04:47:03;;;;;;;13.68;10.15;;;15.80;99.90;;;;;;5059165;28;20052;-63
2022/05/18 04:49:29;;;;;;;15.50;10.57;;;15.90;99.90;;;;;;5062652;28;20047;-63
2022/05/18 04:51:55;;;;;;;16.27;10.90;;;15.90;99.90;;;;;;5041721;28;20036;-62
2022/05/18 04:54:20;;;;;;;18.85;11.23;;;15.90;99.90;;;;;;5057579;28;20040;-63
2022/05/18 04:56:46;;;;;;;13.18;10.75;;;16.00;99.90;;;;;;5061667;28;20109;-63
2022/05/18 04:59:12;;;;;;;16.90;10.85;;;16.00;99.90;;;;;;5057147;28;20041;-65
2022/05/18 05:01:39;;;;;;;14.13;11.38;;;16.10;99.90;;;;;;5060544;28;20040;-66
2022/05/18 05:04:09;;;;;;;18.40;10.93;;;16.10;99.90;;;;;;5052198;28;20056;-63
2022/05/18 05:06:39;;;;;;;18.67;11.15;;;16.20;99.90;;;;;;5054955;28;20035;-66
2022/05/18 05:09:04;;;;;;;13.75;11.52;;;16.20;99.90;;;;;;5059768;28;20067;-64
2022/05/18 05:11:30;;;;;;;18.70;11.20;;;16.20;99.90;;;;;;5061448;28;20482;-66
2022/05/18 05:13:56;;;;;;;13.65;11.43;;;16.20;99.90;;;;;;5054220;28;20499;-65
2022/05/18 05:16:21;;;;;;;16.75;12.68;;;16.20;99.90;;;;;;5057391;28;20043;-63
2022/05/18 05:18:47;;;;;;;17.75;11.38;;;16.30;99.90;;;;;;5059692;28;20049;-63
2022/05/18 05:21:13;;;;;;;17.67;12.57;;;16.30;99.90;;;;;;5066139;28;20041;-64
2022/05/18 05:23:38;;;;;;;16.05;12.73;;;16.30;99.90;;;;;;5054175;28;20043;-65
2022/05/18 05:26:04;;;;;;;16.63;12.10;;;16.30;99.90;;;;;;5051682;28;20098;-62
2022/05/18 05:28:30;;;;;;;19.70;12.35;;;16.30;99.90;;;;;;5056183;28;20048;-62
2022/05/18 05:31:04;;;;;;;15.98;12.07;;;16.30;99.90;;;;;;5059770;28;20052;-62
2022/05/18 05:33:30;;;;;;;16.63;12.57;;;16.40;99.90;;;;;;5053976;28;20159;-62
2022/05/18 05:35:55;;;;;;;18.42;12.43;;;16.40;99.90;;;;;;5051705;28;20063;-62
2022/05/18 05:38:21;;;;;;;15.82;12.00;;;16.40;99.90;;;;;;5056613;28;20033;-65
2022/05/18 05:40:46;;;;;;;17.55;12.48;;;16.40;99.90;;;;;;5067079;28;20035;-62
2022/05/18 05:43:12;;;;;;;16.85;12.60;;;16.50;99.90;;;;;;5069017;28;20116;-62
2022/05/18 05:45:39;;;;;;;15.32;13.40;;;16.50;99.90;;;;;;5050014;28;20073;-63
2022/05/18 05:48:06;;;;;;;15.90;12.48;;;16.50;99.90;;;;;;5056382;28;20032;-62
2022/05/18 05:50:31;;;;;;;18.63;12.48;;;16.60;99.90;;;;;;5049761;28;20111;-63
2022/05/18 05:52:58;;;;;;;17.77;12.90;;;16.60;99.90;;;;;;5051216;28;20128;-67
2022/05/18 05:55:25;;;;;;;19.17;12.38;;;16.70;99.90;;;;;;5051189;28;20047;-67
2022/05/18 05:57:53;;;;;;;14.85;12.48;;;16.70;99.90;;;;;;5094275;22;20054;-62
2022/05/18 06:00:19;;;;;;;15.98;12.52;;;16.80;99.90;;;;;;5058334;28;20045;-62
2022/05/18 06:02:45;;;;;;;15.38;12.23;;;16.80;99.90;;;;;;5046921;28;20064;-62
2022/05/18 06:05:10;;;;;;;15.93;12.32;;;16.90;99.90;;;;;;5050849;28;21397;-62
2022/05/18 06:07:36;;;;;;;17.90;13.35;;;16.90;99.90;;;;;;5054069;28;20449;-65
2022/05/18 06:10:02;;;;;;;13.68;11.70;;;17.00;99.90;;;;;;5062372;28;20391;-67
2022/05/18 06:12:28;;;;;;;16.42;11.95;;;17.00;99.90;;;;;;5060397;28;20479;-69
2022/05/18 06:14:53;;;;;;;15.20;12.50;;;17.00;99.90;;;;;;5061173;28;20048;-62
2022/05/18 06:17:19;;;;;;;16.52;12.38;;;17.10;99.90;;;;;;5034938;28;20482;-62
2022/05/18 06:19:45;;;;;;;18.20;13.40;;;17.10;99.90;;;;;;5050696;28;20041;-63
2022/05/18 06:22:10;;;;;;;17.25;12.70;;;17.20;99.90;;;;;;5036112;28;20041;-63
2022/05/18 06:24:36;;;;;;;15.95;12.45;;;17.30;99.90;;;;;;5056208;28;20073;-68
2022/05/18 06:27:03;;;;;;;17.23;12.30;;;17.30;99.90;;;;;;5034844;28;20052;-65
2022/05/18 06:29:28;;;;;;;17.70;13.07;;;17.40;99.90;;;;;;5040416;28;20057;-64
2022/05/18 06:31:56;;;;;;;16.48;12.27;;;17.40;99.90;;;;;;5049961;28;20060;-68
2022/05/18 06:34:22;;;;;;;16.33;12.75;;;17.50;99.90;;;;;;5070830;28;20041;-63
2022/05/18 06:36:49;;;;;;;14.93;12.48;;;17.60;99.90;;;;;;5070148;28;20032;-63
2022/05/18 06:39:18;;;;;;;15.95;12.43;;;17.70;99.90;;;;;;5067150;28;20040;-64
2022/05/18 06:41:44;;;;;;;15.23;12.60;;;17.80;99.90;;;;;;5036798;28;20079;-63
2022/05/18 06:44:10;;;;;;;15.70;11.57;;;17.90;99.90;;;;;;5058508;28;20048;-63
2022/05/18 06:46:37;;;;;;;16.92;12.25;;;17.90;99.90;;;;;;5058303;28;20033;-63
2022/05/18 06:49:04;;;;;;;18.20;12.10;;;18.00;99.90;;;;;;5068231;28;20115;-62
2022/05/18 06:51:33;;;;;;;17.02;12.35;;;18.10;99.90;;;;;;5055711;28;20457;-63
2022/05/18 06:53:58;;;;;;;15.95;11.57;;;18.10;99.90;;;;;;5054915;28;20182;-66
2022/05/18 06:56:27;;;;;;;16.92;12.18;;;18.20;99.90;;;;;;5059689;28;20469;-63
2022/05/18 06:58:53;;;;;;;16.50;12.52;;;18.30;99.90;;;;;;5065464;28;20041;-62
2022/05/18 07:01:19;;;;;;;16.48;12.25;;;18.40;99.90;;;;;;5059771;28;20040;-66
2022/05/18 07:03:45;;;;;;;15.60;12.07;;;18.40;99.90;;;;;;5063922;28;20032;-66
2022/05/18 07:06:12;;;;;;;18.75;12.32;;;18.50;99.90;;;;;;5047289;28;20086;-66
2022/05/18 07:08:39;;;;;;;15.43;11.85;;;18.60;99.90;;;;;;5049603;28;20033;-63
2022/05/18 07:11:05;;;;;;;18.38;12.43;;;18.70;99.90;;;;;;5036261;28;20049;-63
2022/05/18 07:13:31;;;;;;;17.10;12.35;;;18.80;99.90;;;;;;5054416;28;20040;-63
2022/05/18 07:15:58;;;;;;;17.00;11.75;;;18.90;99.90;;;;;;5055306;28;20037;-66
2022/05/18 07:18:29;;;;;;;13.35;11.73;;;19.00;99.90;;;;;;5069103;28;20491;-64
2022/05/18 07:20:59;;;;;;;14.07;11.10;;;19.10;99.90;;;;;;5054481;28;20045;-62
2022/05/18 07:23:26;;;;;;;16.63;11.02;;;19.10;99.90;;;;;;5039550;28;20119;-62
2022/05/18 07:25:52;;;;;;;12.55;10.90;;;19.20;99.90;;;;;;5054760;28;20032;-68
2022/05/18 07:28:18;;;;;;;14.00;11.02;;;19.40;99.90;;;;;;5047762;28;20115;-63
2022/05/18 07:30:44;;;;;;;15.55;10.70;;;19.40;99.90;;;;;;5067320;28;20124;-64
2022/05/18 07:33:10;;;;;;;16.58;11.07;;;19.50;99.90;;;;;;5043584;28;20052;-66
2022/05/18 07:35:35;;;;;;;19.20;10.98;;;19.70;99.90;;;;;;5048857;28;20123;-63
2022/05/18 07:38:01;;;;;;;11.32;9.52;;;19.80;99.90;;;;;;5058608;28;20066;-63
2022/05/18 07:40:28;;;;;;;17.10;9.98;;;19.90;99.90;;;;;;5060320;28;20041;-63
2022/05/18 07:42:56;;;;;;;16.15;10.55;;;19.90;99.90;;;;;;5058811;28;20025;-63
2022/05/18 07:45:23;;;;;;;14.88;10.80;;;20.10;99.90;;;;;;5037092;28;20048;-63
2022/05/18 07:47:51;;;;;;;13.70;10.23;;;20.10;99.90;;;;;;5053630;28;20045;-64
2022/05/18 07:50:17;;;;;;;15.18;10.15;;;20.20;99.90;;;;;;5055788;28;20126;-64
2022/05/18 07:52:43;;;;;;;11.98;10.05;;;20.40;99.90;;;;;;5037742;28;20079;-69
2022/05/18 07:55:09;;;;;;;12.15;9.57;;;20.50;99.90;;;;;;5055940;28;20076;-66
2022/05/18 07:57:34;;;;;;;16.25;9.90;;;20.70;99.90;;;;;;5052221;28;20142;-63
2022/05/18 08:00:00;;;;;;;13.07;9.50;;;20.80;99.90;;;;;;5061354;28;20043;-63
2022/05/18 08:02:27;;;;;;;14.75;9.77;;;21.00;99.90;;;;;;5035425;28;20037;-65
2022/05/18 08:04:52;;;;;;;14.15;10.55;;;21.10;99.90;;;;;;5039472;28;20059;-63
2022/05/18 08:07:18;;;;;;;15.02;9.18;;;21.30;99.90;;;;;;5052222;28;20104;-63
2022/05/18 08:15:12;;;;;;;11.68;8.65;;;21.50;99.90;;;;;;5036706;28;20516;-66
2022/05/18 08:17:41;;;;;;;12.75;8.38;;;21.70;99.90;;;;;;5039676;28;20171;-63
2022/05/18 08:20:08;;;;;;;11.65;8.52;;;21.90;99.90;;;;;;5044982;28;20505;-63
2022/05/18 08:22:34;;;;;;;13.48;8.82;;;22.00;99.90;;;;;;5068538;28;20036;-64
2022/05/18 08:24:59;;;;;;;13.55;9.27;;;22.10;99.90;;;;;;5043608;28;20372;-66
2022/05/18 08:27:25;;;;;;;9.13;7.78;;;22.20;99.90;;;;;;5030798;28;20403;-63
2022/05/18 08:29:50;;;;;;;13.45;8.15;;;22.50;99.90;;;;;;5057085;28;20036;-63
2022/05/18 08:32:16;;;;;;;11.02;7.82;;;22.70;99.90;;;;;;5051935;28;20033;-63
2022/05/18 08:34:41;;;;;;;9.02;6.47;;;22.90;99.90;;;;;;5046009;28;20043;-70
2022/05/18 08:37:07;;;;;;;9.52;6.63;;;23.20;99.90;;;;;;5042874;28;20399;-65
2022/05/18 08:39:32;;;;;;;12.80;5.93;;;23.50;99.90;;;;;;5054033;28;20504;-63
2022/05/18 08:42:01;;;;;;;15.70;6.13;;;23.70;99.90;;;;;;5060015;28;20041;-64
2022/05/18 08:44:34;;;;;;;11.23;7.45;;;23.90;99.90;;;;;;5068406;28;20059;-67
2022/05/18 08:47:10;;;;;;;10.30;7.18;;;24.00;99.90;;;;;;5069040;28;20347;-68
2022/05/18 08:50:05;;;;;;;14.13;7.82;;;24.20;99.90;;;;;;5068764;28;20483;-66
2022/05/18 08:52:59;;;;;;;12.60;7.85;;;24.30;99.90;;;;;;5033733;28;20052;-65
2022/05/18 08:55:53;;;;;;;11.68;8.07;;;24.40;99.60;;;;;;5030559;28;20045;-63
2022/05/18 08:58:40;;;;;;;34.53;8.43;;;24.40;98.40;;;;;;5056503;28;20040;-67
2022/05/18 09:01:37;;;;;;;13.57;7.88;;;24.50;99.40;;;;;;5031139;28;20534;-69
2022/05/18 09:04:13;;;;;;;11.52;7.35;;;24.50;98.30;;;;;;5029420;28;20057;-65
2022/05/18 09:06:46;;;;;;;9.98;7.63;;;24.60;98.80;;;;;;5037676;28;20509;-66
2022/05/18 09:12:07;;;;;;;9.13;7.40;;;24.90;98.50;;;;;;5050221;28;20146;-69
2022/05/18 09:14:40;;;;;;;13.82;9.13;;;25.00;98.50;;;;;;5051084;28;20036;-64
2022/05/18 09:17:35;;;;;;;11.45;8.93;;;25.10;98.20;;;;;;5035992;28;20063;-72
2022/05/18 09:20:24;;;;;;;13.90;9.65;;;25.30;97.70;;;;;;5019948;28;20118;-68
2022/05/18 09:23:05;;;;;;;12.15;9.70;;;25.50;97.90;;;;;;5056304;28;20040;-66
2022/05/18 09:25:55;;;;;;;20.17;10.48;;;25.60;97.60;;;;;;5034488;28;20033;-64
2022/05/18 09:28:46;;;;;;;11.80;8.73;;;25.60;96.90;;;;;;5034449;28;20712;-63
2022/05/18 09:31:33;;;;;;;12.43;9.02;;;25.80;97.30;;;;;;5053063;28;20045;-67
2022/05/18 09:34:08;;;;;;;15.38;9.15;;;25.90;96.70;;;;;;5033134;28;20056;-64
2022/05/18 09:36:37;;;;;;;14.65;8.68;;;26.00;96.90;;;;;;5051661;28;20052;-65
2022/05/18 09:39:02;;;;;;;11.98;8.38;;;26.10;96.40;;;;;;5049365;28;20051;-65
2022/05/18 09:41:44;;;;;;;12.85;8.82;;;26.20;95.50;;;;;;5032984;28;20032;-65
2022/05/18 09:44:27;;;;;;;14.00;9.85;;;26.40;95.00;;;;;;5035229;28;20036;-66
2022/05/18 09:46:56;;;;;;;12.23;10.50;;;26.50;94.90;;;;;;5051364;28;20434;-66
2022/05/18 09:49:34;;;;;;;15.77;11.45;;;26.70;95.00;;;;;;5021004;28;20045;-64
2022/05/18 09:52:03;;;;;;;15.82;10.23;;;26.90;93.70;;;;;;5050935;28;20052;-64
2022/05/18 09:54:34;;;;;;;16.65;11.23;;;27.00;93.90;;;;;;5051513;28;20055;-66
2022/05/18 09:57:13;;;;;;;15.95;11.52;;;27.10;92.80;;;;;;5032567;28;20036;-70
2022/05/18 09:59:43;;;;;;;13.90;10.30;;;27.10;91.60;;;;;;5043644;28;20045;-65
2022/05/18 10:07:52;;;;;;;17.88;13.23;;;27.20;90.60;;;;;;5060827;28;20051;-64
2022/05/18 10:10:34;;;;;;;16.08;12.77;;;27.10;90.50;;;;;;5039780;28;20295;-64
2022/05/18 10:13:08;;;;;;;15.13;10.15;;;27.20;90.10;;;;;;5052572;28;20494;-64
2022/05/18 10:15:44;;;;;;;17.13;12.57;;;27.30;91.00;;;;;;5065880;28;20044;-64
2022/05/18 10:18:29;;;;;;;15.88;12.57;;;27.60;90.40;;;;;;5040996;28;20072;-65
2022/05/18 10:21:16;;;;;;;13.95;12.10;;;27.70;88.40;;;;;;5044584;28;20127;-66
2022/05/18 10:23:50;;;;;;;16.35;13.23;;;27.80;87.30;;;;;;5040533;28;20072;-64
2022/05/18 10:26:43;;;;;;;16.48;12.85;;;27.80;85.60;;;;;;5038716;28;20072;-64
2022/05/18 10:29:11;;;;;;;16.42;14.60;;;27.70;85.10;;;;;;5052723;28;20471;-66
2022/05/18 10:31:42;;;;;;;17.90;14.38;;;27.70;87.10;;;;;;5048476;28;20362;-70
2022/05/18 10:34:08;;;;;;;;;;;27.70;87.10;;;;;;5045717;28;20048;-64
2022/05/18 10:36:42;;;;;;;14.80;12.15;;;28.00;88.10;;;;;;5043791;28;19923;-65
2022/05/18 10:39:07;;;;;;;17.20;13.07;;;28.20;86.50;;;;;;5055955;28;20711;-67
2022/05/18 10:41:42;;;;;;;18.27;13.85;;;28.40;86.40;;;;;;5041757;28;20048;-65
2022/05/18 10:44:19;;;;;;;20.38;13.38;;;28.50;83.60;;;;;;5047580;28;20037;-68
2022/05/18 10:46:48;;;;;;;16.40;13.65;;;28.60;81.60;;;;;;5053422;28;20487;-65
2022/05/18 10:49:34;;;;;;;19.15;16.02;;;28.70;83.00;;;;;;5054618;28;20041;-68
2022/05/18 10:52:16;;;;;;;16.77;12.43;;;28.70;81.70;;;;;;5038410;28;20139;-69
2022/05/18 10:54:58;;;;;;;15.98;12.43;;;28.60;81.20;;;;;;5042299;28;20100;-64
2022/05/18 10:57:33;;;;;;;18.35;14.77;;;28.60;80.80;;;;;;5056179;28;20076;-66
2022/05/18 11:00:12;;;;;;;20.15;15.15;;;28.70;81.20;;;;;;5038322;28;20040;-66
2022/05/18 11:02:51;;;;;;;16.67;14.23;;;28.80;80.10;;;;;;5031139;28;20033;-70
2022/05/18 11:05:40;;;;;;;14.93;12.38;;;28.70;80.40;;;;;;5038887;28;20487;-69
2022/05/18 11:08:14;;;;;;;18.85;16.23;;;28.90;80.90;;;;;;5053033;28;20128;-68
2022/05/18 11:11:00;;;;;;;20.75;16.33;;;28.90;81.30;;;;;;5034165;28;20086;-68
2022/05/18 11:13:46;;;;;;;18.45;15.38;;;28.80;80.70;;;;;;5034732;28;20110;-70
2022/05/18 11:16:31;;;;;;;18.25;13.40;;;28.90;80.50;;;;;;5037451;28;20564;-64
2022/05/18 11:19:07;;;;;;;17.40;15.00;;;28.90;80.50;;;;;;5062682;28;20502;-70
2022/05/18 11:21:49;;;;;;;14.02;12.23;;;28.90;79.60;;;;;;5044001;28;20072;-65
2022/05/18 11:24:40;;;;;;;17.38;13.35;;;28.90;79.90;;;;;;5041964;28;20124;-65
2022/05/18 11:27:25;;;;;;;15.63;12.30;;;29.10;77.90;;;;;;5054190;28;20558;-67
2022/05/18 11:30:12;;;;;;;16.88;15.00;;;29.20;76.80;;;;;;5051622;28;20080;-66
2022/05/18 11:32:47;;;;;;;16.45;14.73;;;29.10;75.60;;;;;;5052499;28;20033;-64
2022/05/18 11:35:49;;;;;;;17.02;14.65;;;29.10;76.10;;;;;;5024152;28;20037;-63
2022/05/18 11:38:31;;;;;;;23.08;15.65;;;29.00;76.00;;;;;;5014248;28;20499;-70
2022/05/18 11:41:22;;;;;;;25.17;16.50;;;28.90;76.40;;;;;;5039215;28;20487;-67
2022/05/18 11:44:02;;;;;;;19.73;14.73;;;28.80;77.00;;;;;;5062186;28;20086;-65
2022/05/18 11:46:49;;;;;;;18.58;15.38;;;28.80;77.30;;;;;;5041744;28;20091;-64
2022/05/18 11:49:20;;;;;;;22.90;17.05;;;28.80;78.20;;;;;;5055228;28;20079;-64
2022/05/18 11:51:52;;;;;;;20.42;17.50;;;28.60;77.90;;;;;;5070896;28;20033;-66
2022/05/18 11:54:21;;;;;;;19.33;17.30;;;28.50;78.30;;;;;;5057569;28;20033;-64
2022/05/18 11:57:07;;;;;;;18.33;15.25;;;28.30;78.70;;;;;;5063398;28;20055;-65
2022/05/18 12:02:28;;;;;;;15.32;13.73;;;28.50;81.10;;;;;;5043975;28;20127;-70
2022/05/18 12:05:16;;;;;;;21.88;17.42;;;28.80;80.70;;;;;;5053807;28;20036;-64
2022/05/18 12:08:27;;;;;;;19.88;17.67;;;28.80;78.90;;;;;;5042123;28;20525;-63
2022/05/18 12:11:30;;;;;;;18.27;14.40;;;28.80;77.40;;;;;;5081130;22;20058;-61
2022/05/18 12:14:15;;;;;;;16.80;14.50;;;28.80;79.40;;;;;;5103790;28;20039;-66
2022/05/18 12:17:21;;;;;;;15.05;13.38;;;28.80;79.70;;;;;;5092177;28;20374;-62
2022/05/18 12:19:56;;;;;;;19.05;15.32;;;29.00;79.80;;;;;;5060154;28;20490;-61
2022/05/18 12:22:31;;;;;;;17.08;13.55;;;29.20;79.20;;;;;;5073473;28;20036;-61
2022/05/18 12:24:57;;;;;;;16.75;14.95;;;29.30;79.20;;;;;;5073562;28;20158;-62
2022/05/18 12:27:24;;;;;;;16.15;13.05;;;29.50;78.90;;;;;;5073160;28;20076;-62
2022/05/18 12:29:55;;;;;;;12.95;11.15;;;29.60;78.60;;;;;;5077550;28;20506;-67
2022/05/18 12:32:22;;;;;;;15.32;9.70;;;29.80;78.50;;;;;;5085872;28;20036;-64
2022/05/18 12:35:02;;;;;;;14.55;10.90;;;29.80;78.00;;;;;;5077047;28;20036;-63
2022/05/18 12:37:34;;;;;;;13.18;9.00;;;29.70;76.80;;;;;;5055046;28;20406;-62
2022/05/18 12:40:23;;;;;;;16.38;11.35;;;29.60;77.20;;;;;;5074975;28;20505;-63
2022/05/18 12:42:56;;;;;;;14.77;12.15;;;29.50;77.20;;;;;;5084297;28;20425;-65
2022/05/18 12:45:36;;;;;;;14.60;10.95;;;29.50;77.90;;;;;;5073484;28;20116;-63
2022/05/18 12:48:17;;;;;;;17.92;14.77;;;29.40;77.70;;;;;;5063948;28;20081;-63
2022/05/18 12:51:05;;;;;;;;;;;29.30;77.20;;;;;;5080191;28;20095;-66
2022/05/18 12:53:48;;;;;;;13.85;12.25;;;29.20;77.20;;;;;;5091264;28;19916;-62
2022/05/18 12:56:37;;;;;;;16.17;13.02;;;29.10;77.90;;;;;;5074808;28;20040;-63
2022/05/18 12:59:10;;;;;;;15.77;13.27;;;29.20;78.10;;;;;;5074061;28;20536;-62
2022/05/18 13:01:39;;;;;;;18.33;14.93;;;29.10;77.90;;;;;;5073617;28;20436;-63
2022/05/18 13:04:10;;;;;;;18.17;12.95;;;29.00;78.00;;;;;;5092493;28;20072;-62
2022/05/18 13:06:36;;;;;;;16.35;12.85;;;28.70;78.30;;;;;;5074325;28;20040;-63
2022/05/18 13:09:26;;;;;;;15.07;12.25;;;28.60;79.10;;;;;;5090745;28;20050;-64
2022/05/18 13:11:54;;;;;;;13.80;11.83;;;28.60;80.00;;;;;;5090762;28;20059;-62